Time;durP1;ratioP1;P1;durP2;ratioP2;P2;SDS_P1;SDS_P2;PMS_P1;PMS_P2;Temp;Humidity;BMP_temperature;BMP_pressure;BME280_temperature;BME280_humidity;BME280_pressure;Samples;Min_cycle;Max_cycle;Signal;HPM_P1;HPM_P2
2021/07/02 00:02:29;;;;;;;14.45;3.42;;;;;;;12.53;100.00;100001.94;6285613;22;20019;-63
2021/07/02 00:05:32;;;;;;;9.88;2.30;;;;;;;12.54;100.00;99997.88;6286034;22;20019;-63
2021/07/02 00:08:36;;;;;;;14.23;2.92;;;;;;;12.74;100.00;99981.16;6285113;22;20023;-63
2021/07/02 00:11:39;;;;;;;9.48;2.70;;;;;;;12.73;100.00;99988.00;6285752;22;20018;-63
2021/07/02 00:14:43;;;;;;;7.32;3.53;;;;;;;12.80;100.00;99977.16;6267047;22;20030;-63
2021/07/02 00:17:46;;;;;;;13.43;3.80;;;;;;;12.92;100.00;99976.06;6286122;22;20456;-63
2021/07/02 00:20:50;;;;;;;9.93;2.85;;;;;;;12.93;100.00;99982.41;6285087;22;20068;-63
2021/07/02 00:23:53;;;;;;;15.30;3.50;;;;;;;12.94;100.00;99981.16;6286114;22;20026;-63
2021/07/02 00:26:57;;;;;;;8.65;2.78;;;;;;;13.01;100.00;99975.16;6285687;22;20019;-63
2021/07/02 00:30:00;;;;;;;18.60;4.47;;;;;;;13.03;100.00;99975.44;6286020;22;20456;-63
2021/07/02 00:33:04;;;;;;;7.70;1.98;;;;;;;13.06;100.00;99968.88;6285160;22;20027;-63
2021/07/02 00:36:08;;;;;;;7.88;2.90;;;;;;;13.13;100.00;99987.28;6285637;22;20023;-63
2021/07/02 00:39:11;;;;;;;7.15;2.63;;;;;;;13.15;100.00;99979.94;6287074;22;20023;-63
2021/07/02 00:42:14;;;;;;;7.47;2.15;;;;;;;13.16;100.00;99975.88;6268573;22;20344;-64
2021/07/02 00:45:18;;;;;;;8.27;3.22;;;;;;;13.18;100.00;99972.59;6287141;22;20466;-63
2021/07/02 00:48:22;;;;;;;9.07;3.65;;;;;;;13.25;100.00;99972.94;6287557;22;20022;-63
2021/07/02 00:51:29;;;;;;;15.18;4.25;;;;;;;13.23;100.00;99967.06;6282127;22;20023;-63
2021/07/02 00:54:34;;;;;;;11.00;2.40;;;;;;;13.25;100.00;99967.34;6287538;22;20035;-63
2021/07/02 00:57:38;;;;;;;7.05;2.60;;;;;;;13.25;100.00;99956.16;6287030;22;20022;-63
2021/07/02 01:00:42;;;;;;;12.63;3.10;;;;;;;13.23;100.00;99960.72;6287513;22;20026;-63
2021/07/02 01:03:48;;;;;;;12.93;3.55;;;;;;;13.23;100.00;99969.09;6286658;22;20027;-63
2021/07/02 01:06:52;;;;;;;9.90;3.33;;;;;;;13.19;100.00;99962.97;6287572;22;20023;-63
2021/07/02 01:09:56;;;;;;;14.68;3.35;;;;;;;13.17;100.00;99962.66;6286755;22;20039;-63
2021/07/02 01:12:59;;;;;;;9.05;3.65;;;;;;;13.15;100.00;99971.53;6287052;22;20026;-63
2021/07/02 01:16:03;;;;;;;19.98;4.38;;;;;;;13.19;100.00;99966.50;6287413;22;20053;-63
2021/07/02 01:19:07;;;;;;;10.93;3.75;;;;;;;13.17;100.00;99963.44;6287337;22;20019;-63
2021/07/02 01:22:15;;;;;;;14.98;3.47;;;;;;;13.15;100.00;99962.38;6287103;22;20034;-63
2021/07/02 01:25:19;;;;;;;14.50;3.72;;;;;;;13.18;100.00;99967.78;6287096;22;20368;-63
2021/07/02 01:28:23;;;;;;;7.43;3.13;;;;;;;13.20;100.00;99962.47;6287695;22;20023;-63
2021/07/02 01:31:26;;;;;;;12.05;3.38;;;;;;;13.28;100.00;99966.34;6287241;22;20034;-63
2021/07/02 01:34:30;;;;;;;9.38;2.67;;;;;;;13.37;100.00;99955.03;6287090;22;20031;-64
2021/07/02 01:37:34;;;;;;;18.05;3.38;;;;;;;13.35;100.00;99960.34;6286978;22;20038;-63
2021/07/02 01:40:38;;;;;;;16.08;3.70;;;;;;;13.27;100.00;99953.66;6268492;22;20471;-63
2021/07/02 01:43:41;;;;;;;11.90;4.45;;;;;;;13.28;100.00;99952.38;6286457;22;20468;-63
2021/07/02 01:46:44;;;;;;;8.65;2.83;;;;;;;13.25;100.00;99950.56;6287084;22;20035;-63
2021/07/02 01:49:48;;;;;;;10.65;3.67;;;;;;;13.32;100.00;99947.31;6267525;22;20026;-63
2021/07/02 01:52:55;;;;;;;11.02;2.25;;;;;;;13.35;100.00;99949.16;6286231;22;20023;-63
2021/07/02 01:55:59;;;;;;;6.78;2.97;;;;;;;13.37;100.00;99949.44;6286670;22;20074;-63
2021/07/02 01:59:03;;;;;;;17.13;4.85;;;;;;;13.42;100.00;99943.13;6286579;22;20531;-63
2021/07/02 02:02:07;;;;;;;12.93;3.75;;;;;;;13.46;100.00;99943.69;6286537;22;20027;-63
2021/07/02 02:05:12;;;;;;;9.68;3.05;;;;;;;13.47;100.00;99939.59;6286435;22;20026;-63
2021/07/02 02:08:16;;;;;;;11.32;3.20;;;;;;;13.45;100.00;99947.72;6286301;22;20340;-63
2021/07/02 02:11:19;;;;;;;10.88;3.10;;;;;;;13.45;100.00;99941.34;6267425;22;20022;-63
2021/07/02 02:14:23;;;;;;;6.55;2.63;;;;;;;13.42;100.00;99931.94;6286216;22;20022;-63
2021/07/02 02:17:26;;;;;;;9.25;2.88;;;;;;;13.45;100.00;99936.53;6286400;22;20026;-63
2021/07/02 02:20:30;;;;;;;9.07;2.55;;;;;;;13.49;100.00;99937.06;6286022;22;20039;-63
2021/07/02 02:23:33;;;;;;;8.35;3.15;;;;;;;13.50;100.00;99921.84;6286410;22;20325;-63
2021/07/02 02:26:36;;;;;;;15.70;2.67;;;;;;;13.52;100.00;99924.91;6267592;22;20043;-63
2021/07/02 02:29:40;;;;;;;15.95;2.10;;;;;;;13.53;100.00;99926.47;6286874;22;20023;-63
2021/07/02 02:32:43;;;;;;;13.45;4.20;;;;;;;13.51;100.00;99917.78;6286469;22;20345;-63
2021/07/02 02:35:47;;;;;;;10.77;3.20;;;;;;;13.48;100.00;99915.97;6286268;22;20038;-63
2021/07/02 02:38:50;;;;;;;12.43;3.25;;;;;;;13.50;100.00;99910.66;6285981;22;20022;-63
2021/07/02 02:41:54;;;;;;;9.98;3.22;;;;;;;13.51;100.00;99914.97;6286158;22;20595;-63
2021/07/02 02:44:57;;;;;;;17.20;3.20;;;;;;;13.52;100.00;99916.53;6286382;22;20042;-63
2021/07/02 02:48:02;;;;;;;13.13;3.55;;;;;;;13.54;100.00;99910.41;6286369;22;20459;-63
2021/07/02 02:51:06;;;;;;;16.83;3.92;;;;;;;13.52;100.00;99902.53;6282255;22;20027;-63
2021/07/02 02:54:09;;;;;;;14.10;3.63;;;;;;;13.51;100.00;99903.03;6286494;22;20026;-63
2021/07/02 02:57:12;;;;;;;12.18;3.58;;;;;;;13.51;100.00;99905.84;6286037;22;20336;-62
2021/07/02 03:00:16;;;;;;;12.90;2.97;;;;;;;13.48;100.00;99896.38;6285612;22;20066;-63
2021/07/02 03:03:20;;;;;;;14.43;3.17;;;;;;;13.50;100.00;99899.47;6286138;22;20019;-63
2021/07/02 03:06:23;;;;;;;7.82;2.17;;;;;;;13.53;100.00;99901.28;6286324;22;20042;-63
2021/07/02 03:09:27;;;;;;;13.18;4.20;;;;;;;13.52;100.00;99896.94;6285989;22;20026;-63
2021/07/02 03:12:30;;;;;;;18.58;4.88;;;;;;;13.52;100.00;99899.72;6285762;22;20022;-62
2021/07/02 03:15:34;;;;;;;15.48;4.85;;;;;;;13.55;100.00;99907.16;6285583;22;20022;-63
2021/07/02 03:18:38;;;;;;;15.93;3.08;;;;;;;13.55;100.00;99901.56;6286135;22;20027;-63
2021/07/02 03:21:42;;;;;;;15.32;2.95;;;;;;;13.55;100.00;99890.34;6285629;22;20027;-63
2021/07/02 03:24:45;;;;;;;7.63;2.60;;;;;;;13.54;100.00;99890.84;6286314;22;20038;-63
2021/07/02 03:27:48;;;;;;;6.55;2.33;;;;;;;13.54;100.00;99897.19;6286077;22;20467;-63
2021/07/02 03:30:52;;;;;;;13.88;4.15;;;;;;;13.57;100.00;99893.44;6286234;22;20023;-63
2021/07/02 03:33:55;;;;;;;20.73;3.65;;;;;;;13.58;100.00;99894.94;6286272;22;20022;-63
2021/07/02 03:36:59;;;;;;;15.00;3.42;;;;;;;13.55;100.00;99887.56;6286197;22;20325;-63
2021/07/02 03:40:13;;;;;;;23.38;5.57;;;;;;;13.55;100.00;99881.97;6286131;22;20027;-63
2021/07/02 03:43:17;;;;;;;17.85;4.43;;;;;;;13.56;100.00;99883.47;6286060;22;20042;-63
2021/07/02 03:46:21;;;;;;;13.30;4.45;;;;;;;13.55;100.00;99884.75;6286189;22;20325;-63
2021/07/02 03:49:25;;;;;;;16.48;4.82;;;;;;;13.56;100.00;99903.06;6286076;22;20030;-63
2021/07/02 03:52:29;;;;;;;37.67;6.32;;;;;;;13.58;100.00;99897.75;6276042;22;20027;-63
2021/07/02 03:55:32;;;;;;;17.88;5.13;;;;;;;13.54;100.00;99900.00;6285769;22;20042;-63
2021/07/02 03:58:35;;;;;;;31.67;5.63;;;;;;;13.56;100.00;99891.88;6286011;22;20031;-63
2021/07/02 04:01:39;;;;;;;13.98;3.38;;;;;;;13.55;100.00;99906.38;6285836;22;20468;-63
2021/07/02 04:04:43;;;;;;;20.42;4.78;;;;;;;13.47;100.00;99894.84;6286199;22;20043;-63
2021/07/02 04:07:47;;;;;;;27.10;5.07;;;;;;;13.46;100.00;99898.13;6285799;22;20034;-63
2021/07/02 04:10:50;;;;;;;16.77;4.75;;;;;;;13.48;100.00;99896.38;6286108;22;20023;-63
2021/07/02 04:13:53;;;;;;;18.55;5.22;;;;;;;13.49;100.00;99897.91;6287887;22;20026;-63
2021/07/02 04:16:57;;;;;;;21.92;4.72;;;;;;;13.48;100.00;99890.78;6288046;22;20023;-63
2021/07/02 04:20:01;;;;;;;23.40;5.90;;;;;;;13.45;100.00;99888.97;6287679;22;20349;-63
2021/07/02 04:23:05;;;;;;;16.60;4.25;;;;;;;13.45;100.00;99897.38;6288239;22;20019;-63
2021/07/02 04:26:09;;;;;;;18.02;4.90;;;;;;;13.44;100.00;99884.66;6287648;22;20075;-63
2021/07/02 04:29:13;;;;;;;22.85;5.80;;;;;;;13.49;100.00;99888.78;6268422;22;20471;-63
2021/07/02 04:32:17;;;;;;;24.30;4.60;;;;;;;13.49;100.00;99875.53;6287581;22;20038;-63
2021/07/02 04:35:20;;;;;;;15.95;4.43;;;;;;;13.49;100.00;99875.53;6287363;22;20023;-63
2021/07/02 04:38:24;;;;;;;29.70;5.47;;;;;;;13.49;100.00;99881.13;6287206;22;20467;-63
2021/07/02 04:41:28;;;;;;;28.17;4.95;;;;;;;13.43;100.00;99883.09;6287152;22;20550;-63
2021/07/02 04:44:31;;;;;;;28.25;4.80;;;;;;;13.54;100.00;99886.00;6268757;22;20042;-63
2021/07/02 04:47:35;;;;;;;27.85;5.25;;;;;;;13.42;100.00;99886.41;6286847;22;20026;-63
2021/07/02 04:50:38;;;;;;;17.58;4.22;;;;;;;13.45;100.00;99891.78;6285818;22;20023;-63
2021/07/02 04:53:43;;;;;;;21.67;4.20;;;;;;;13.47;100.00;99894.09;6287790;22;20038;-63
2021/07/02 04:56:47;;;;;;;11.18;3.00;;;;;;;13.47;100.00;99889.25;6287745;22;20447;-63
2021/07/02 04:59:52;;;;;;;14.52;3.35;;;;;;;13.47;100.00;99889.25;6287629;22;20042;-63
2021/07/02 05:02:55;;;;;;;19.90;3.50;;;;;;;13.51;100.00;99889.78;6287769;22;20023;-62
2021/07/02 05:06:01;;;;;;;15.77;4.03;;;;;;;13.53;100.00;99887.28;6287109;22;20408;-63
2021/07/02 05:09:05;;;;;;;19.42;4.32;;;;;;;13.58;100.00;99883.75;6287576;22;20022;-63
2021/07/02 05:12:10;;;;;;;18.65;4.45;;;;;;;13.62;100.00;99889.88;6286868;22;20058;-63
2021/07/02 05:15:14;;;;;;;12.38;4.03;;;;;;;13.67;100.00;99882.81;6286983;22;20027;-62
2021/07/02 05:18:17;;;;;;;13.80;4.70;;;;;;;13.71;100.00;99893.78;6287242;22;20026;-63
2021/07/02 05:21:21;;;;;;;17.42;4.45;;;;;;;13.73;100.00;99888.47;6286898;22;20027;-62
2021/07/02 05:24:24;;;;;;;17.70;3.72;;;;;;;13.75;100.00;99897.13;6286929;22;20455;-63
2021/07/02 05:27:27;;;;;;;15.15;4.05;;;;;;;13.77;100.00;99900.19;6286827;22;20046;-59
2021/07/02 05:30:31;;;;;;;19.73;4.72;;;;;;;13.78;100.00;99898.94;6268454;22;20019;-58
2021/07/02 05:33:35;;;;;;;14.85;4.13;;;;;;;13.83;100.00;99895.41;6286892;22;20023;-59
2021/07/02 05:36:39;;;;;;;16.35;4.53;;;;;;;13.83;100.00;99887.00;6286805;22;20042;-59
2021/07/02 05:39:42;;;;;;;31.13;6.28;;;;;;;13.81;100.00;99893.13;6286870;22;20324;-58
2021/07/02 05:42:46;;;;;;;16.70;4.90;;;;;;;13.86;100.00;99895.19;6286923;22;20042;-59
2021/07/02 05:45:50;;;;;;;21.98;4.88;;;;;;;13.92;100.00;99892.44;6286749;22;20031;-59
2021/07/02 05:48:54;;;;;;;20.40;5.78;;;;;;;14.04;100.00;99896.84;6287236;22;20022;-58
2021/07/02 05:51:58;;;;;;;21.33;4.78;;;;;;;13.95;100.00;99899.81;6279145;22;20460;-59
2021/07/02 05:55:02;;;;;;;19.90;4.85;;;;;;;13.91;100.00;99896.47;6287066;22;20023;-59
2021/07/02 05:58:06;;;;;;;20.38;3.63;;;;;;;13.90;100.00;99900.56;6286827;22;20169;-58
2021/07/02 06:01:10;;;;;;;18.13;4.55;;;;;;;13.93;100.00;99902.34;6286712;22;20341;-58
2021/07/02 06:04:14;;;;;;;22.10;5.50;;;;;;;13.98;100.00;99902.41;6286856;22;20523;-59
2021/07/02 06:07:18;;;;;;;8.50;3.13;;;;;;;13.99;100.00;99906.72;6286660;22;20026;-58
2021/07/02 06:10:23;;;;;;;11.60;4.40;;;;;;;14.02;100.00;99902.94;6286618;22;20023;-58
2021/07/02 06:13:27;;;;;;;21.67;4.45;;;;;;;14.04;100.00;99896.84;6286494;22;20467;-58
2021/07/02 06:16:31;;;;;;;19.58;5.18;;;;;;;14.06;100.00;99906.28;6286655;22;20026;-58
2021/07/02 06:19:35;;;;;;;18.55;4.53;;;;;;;14.06;100.00;99902.72;6286543;22;20027;-58
2021/07/02 06:22:39;;;;;;;22.02;5.20;;;;;;;14.03;100.00;99907.28;6286287;22;20019;-59
2021/07/02 06:25:42;;;;;;;16.67;4.07;;;;;;;14.03;100.00;99912.13;6286557;22;20026;-59
2021/07/02 06:28:46;;;;;;;18.10;4.30;;;;;;;14.09;100.00;99912.94;6286708;22;20022;-57
2021/07/02 06:31:50;;;;;;;15.68;4.40;;;;;;;14.15;100.00;99908.13;6286575;22;20026;-58
2021/07/02 06:34:53;;;;;;;25.52;3.72;;;;;;;14.29;100.00;99907.25;6286666;22;20022;-59
2021/07/02 06:37:56;;;;;;;18.42;4.03;;;;;;;14.35;100.00;99899.63;6286332;22;20027;-59
2021/07/02 06:41:00;;;;;;;26.95;4.53;;;;;;;14.41;100.00;99903.22;6286136;22;20026;-59
2021/07/02 06:44:04;;;;;;;15.52;4.40;;;;;;;14.46;100.00;99905.31;6286104;22;20043;-59
2021/07/02 06:47:08;;;;;;;24.27;5.47;;;;;;;14.48;100.00;99899.97;6267530;22;20462;-59
2021/07/02 06:50:12;;;;;;;17.63;4.20;;;;;;;14.57;100.00;99899.75;6267234;22;20019;-59
2021/07/02 06:53:16;;;;;;;13.98;3.42;;;;;;;14.74;100.00;99897.81;6285935;22;20023;-59
2021/07/02 06:56:19;;;;;;;15.50;4.47;;;;;;;14.84;100.00;99901.91;6286127;22;20019;-58
2021/07/02 06:59:22;;;;;;;28.80;4.63;;;;;;;15.01;100.00;99899.94;6285856;22;20027;-59
2021/07/02 07:02:26;;;;;;;14.85;3.38;;;;;;;15.13;100.00;99895.91;6286128;22;20324;-57
2021/07/02 07:05:29;;;;;;;17.70;4.18;;;;;;;15.23;100.00;99904.06;6286126;22;20030;-57
2021/07/02 07:08:33;;;;;;;20.25;4.82;;;;;;;15.39;100.00;99900.56;6286173;22;20352;-59
2021/07/02 07:11:36;;;;;;;14.25;3.03;;;;;;;15.45;100.00;99895.72;6285821;22;20448;-59
2021/07/02 07:14:39;;;;;;;20.50;5.88;;;;;;;15.53;100.00;99896.75;6286786;22;20317;-59
2021/07/02 07:17:43;;;;;;;17.58;3.60;;;;;;;15.62;100.00;99902.91;6286535;22;20455;-57
2021/07/02 07:20:46;;;;;;;14.98;5.00;;;;;;;15.67;100.00;99904.97;6286337;22;20337;-57
2021/07/02 07:23:50;;;;;;;14.82;4.50;;;;;;;15.71;100.00;99899.09;6267483;22;20023;-59
2021/07/02 07:26:57;;;;;;;23.67;4.90;;;;;;;15.70;100.00;99903.94;6286417;22;20022;-59
2021/07/02 07:30:01;;;;;;;20.95;5.05;;;;;;;15.67;100.00;99899.34;6286397;22;20026;-58
2021/07/02 07:33:05;;;;;;;18.80;3.60;;;;;;;15.79;100.00;99905.72;6286402;22;20022;-59
2021/07/02 07:36:11;;;;;;;20.17;4.57;;;;;;;15.73;100.00;99902.16;6286108;22;20022;-59
2021/07/02 07:39:14;;;;;;;20.48;4.88;;;;;;;15.82;100.00;99904.72;6286382;22;20333;-58
2021/07/02 07:42:18;;;;;;;15.00;4.32;;;;;;;15.90;100.00;99905.72;6286090;22;20023;-59
2021/07/02 07:45:23;;;;;;;11.57;3.22;;;;;;;15.99;100.00;99913.13;6286216;22;20027;-58
2021/07/02 07:48:26;;;;;;;10.70;3.95;;;;;;;15.96;100.00;99917.72;6286193;22;20042;-58
2021/07/02 07:51:33;;;;;;;10.05;4.13;;;;;;;15.96;100.00;99919.78;6278937;22;20038;-59
2021/07/02 07:54:38;;;;;;;17.63;4.50;;;;;;;16.06;100.00;99910.56;6267167;22;20103;-59
2021/07/02 07:57:41;;;;;;;12.70;3.38;;;;;;;16.25;100.00;99908.00;6285785;22;20529;-60
2021/07/02 08:00:45;;;;;;;11.20;3.30;;;;;;;16.29;100.00;99916.91;6285965;22;20027;-59
2021/07/02 08:03:48;;;;;;;18.00;3.80;;;;;;;16.38;100.00;99917.44;6286258;22;20047;-59
2021/07/02 08:06:52;;;;;;;14.77;4.80;;;;;;;16.54;100.00;99918.72;6285999;22;20329;-59
2021/07/02 08:09:55;;;;;;;7.15;3.25;;;;;;;16.66;100.00;99915.34;6286283;22;20452;-60
2021/07/02 08:12:58;;;;;;;13.20;4.30;;;;;;;16.67;100.00;99919.66;6286268;22;20023;-59
2021/07/02 08:16:02;;;;;;;12.35;2.70;;;;;;;16.86;100.00;99927.53;6286201;22;20026;-59
2021/07/02 08:19:06;;;;;;;11.23;2.80;;;;;;;17.05;100.00;99928.50;6286354;22;20022;-59
2021/07/02 08:22:10;;;;;;;11.85;3.30;;;;;;;17.28;100.00;99924.31;6286124;22;20042;-59
2021/07/02 08:25:13;;;;;;;12.80;3.47;;;;;;;17.46;100.00;99923.66;6286072;22;20027;-59
2021/07/02 08:31:39;;;;;;;9.65;4.38;;;;;;;17.08;100.00;99928.22;6285882;22;20037;-60
2021/07/02 08:34:43;;;;;;;13.00;3.47;;;;;;;16.93;100.00;99927.78;6285757;22;20022;-59
2021/07/02 08:37:52;;;;;;;12.00;4.00;;;;;;;16.79;100.00;99931.66;6266647;22;20023;-57
2021/07/02 08:40:55;;;;;;;20.50;4.45;;;;;;;16.69;100.00;99938.84;6266400;22;20026;-59
2021/07/02 08:43:59;;;;;;;13.25;5.07;;;;;;;16.47;100.00;99936.84;6286064;22;20027;-57
2021/07/02 08:47:03;;;;;;;11.60;4.25;;;;;;;16.27;100.00;99937.13;6285938;22;20067;-59
2021/07/02 08:50:08;;;;;;;11.52;3.10;;;;;;;16.08;100.00;99944.53;6285291;22;20027;-59
2021/07/02 08:53:11;;;;;;;10.35;3.13;;;;;;;16.02;100.00;99943.78;6285323;22;20019;-59
2021/07/02 08:56:18;;;;;;;16.98;3.75;;;;;;;16.13;100.00;99946.59;6285384;22;20027;-59
2021/07/02 08:59:27;;;;;;;14.85;3.83;;;;;;;16.20;100.00;99946.06;6287129;22;20023;-59
2021/07/02 09:02:32;;;;;;;15.52;4.70;;;;;;;16.22;100.00;99949.13;6287826;22;20035;-59
2021/07/02 09:05:36;;;;;;;24.67;4.20;;;;;;;16.16;100.00;99951.16;6287231;22;20026;-59
2021/07/02 09:09:04;;;;;;;13.55;4.22;;;;;;;16.03;100.00;99950.91;6287691;22;20038;-59
2021/07/02 09:12:08;;;;;;;18.25;3.60;;;;;;;16.09;100.00;99948.88;6268913;22;20467;-58
2021/07/02 09:15:13;;;;;;;18.92;5.20;;;;;;;16.13;100.00;99949.41;6287170;22;20369;-59
2021/07/02 09:18:17;;;;;;;12.68;3.38;;;;;;;16.24;100.00;99940.94;6286664;22;20023;-59
2021/07/02 09:21:29;;;;;;;10.45;3.47;;;;;;;16.38;100.00;99941.94;6287154;22;20027;-62
2021/07/02 09:24:39;;;;;;;14.50;4.15;;;;;;;16.46;100.00;99935.28;6287021;22;20034;-63
2021/07/02 09:27:43;;;;;;;6.53;2.60;;;;;;;16.56;100.00;99939.41;6286992;22;20027;-63
2021/07/02 09:30:49;;;;;;;23.10;4.25;;;;;;;16.80;100.00;99929.63;6287273;22;20815;-63
2021/07/02 09:33:56;;;;;;;13.77;3.53;;;;;;;17.11;100.00;99932.03;6287585;22;20027;-63
2021/07/02 09:37:24;;;;;;;21.30;3.78;;;;;;;17.37;100.00;99938.03;6287868;22;20026;-63
2021/07/02 09:40:36;;;;;;;13.52;4.15;;;;;;;17.26;100.00;99941.69;6287336;22;20030;-62
2021/07/02 09:43:40;;;;;;;13.65;3.85;;;;;;;17.13;100.00;99935.13;6268375;22;20109;-62
2021/07/02 09:46:43;;;;;;;7.25;2.70;;;;;;;17.10;100.00;99936.16;6268697;22;20026;-63
2021/07/02 09:49:47;;;;;;;14.48;3.42;;;;;;;17.03;100.00;99929.00;6287399;22;20030;-63
2021/07/02 09:53:01;;;;;;;10.48;3.42;;;;;;;16.93;100.00;99938.28;6287386;22;20034;-63
2021/07/02 09:56:19;;;;;;;13.93;4.82;;;;;;;16.75;100.00;99924.78;6286964;22;20448;-63
2021/07/02 09:59:23;;;;;;;7.68;3.42;;;;;;;16.76;100.00;99921.47;6287254;22;20452;-63
2021/07/02 10:02:26;;;;;;;20.17;4.90;;;;;;;16.78;100.00;99920.94;6287359;22;20019;-63
2021/07/02 10:05:30;;;;;;;12.93;4.38;;;;;;;16.72;100.00;99923.00;6287296;22;20336;-62
2021/07/02 10:08:38;;;;;;;19.85;5.05;;;;;;;16.77;100.00;99914.53;6268071;22;20027;-63
2021/07/02 10:11:42;;;;;;;10.57;3.75;;;;;;;16.85;100.00;99911.97;6286897;22;20321;-62
2021/07/02 10:14:49;;;;;;;24.70;5.10;;;;;;;16.95;100.00;99916.78;6287265;22;20451;-62
2021/07/02 10:17:55;;;;;;;12.43;3.78;;;;;;;16.89;100.00;99920.91;6286980;22;20023;-63
2021/07/02 10:21:01;;;;;;;11.90;3.00;;;;;;;16.83;100.00;99917.34;6286411;22;20491;-62
2021/07/02 10:24:07;;;;;;;14.90;3.97;;;;;;;16.71;100.00;99925.03;6286946;22;20027;-62
2021/07/02 10:27:11;;;;;;;20.50;4.80;;;;;;;16.77;100.00;99911.72;6286959;22;20026;-62
2021/07/02 10:30:15;;;;;;;13.20;4.22;;;;;;;16.98;100.00;99914.97;6286873;22;20027;-63
2021/07/02 10:33:23;;;;;;;10.35;3.70;;;;;;;17.14;100.00;99914.13;6285809;22;20018;-59
2021/07/02 10:36:39;;;;;;;12.55;3.75;;;;;;;17.26;100.00;99904.34;6286481;22;20022;-59
2021/07/02 10:39:46;;;;;;;15.80;4.28;;;;;;;17.24;100.00;99906.91;6286857;22;20023;-59
2021/07/02 10:43:14;;;;;;;14.80;4.55;;;;;;;17.42;100.00;99898.59;6286500;22;20022;-59
2021/07/02 10:46:18;;;;;;;16.17;4.55;;;;;;;17.58;100.00;99891.38;6286734;22;20035;-59
2021/07/02 10:49:35;;;;;;;9.60;3.72;;;;;;;17.87;100.00;99893.44;6286858;22;20019;-59
2021/07/02 10:52:41;;;;;;;14.00;4.00;;;;;;;18.17;100.00;99888.53;6286498;22;20479;-59
2021/07/02 10:55:44;;;;;;;19.40;5.20;;;;;;;18.17;100.00;99891.38;6286236;22;20451;-59
2021/07/02 10:58:52;;;;;;;10.65;2.90;;;;;;;18.31;100.00;99895.09;6286678;22;20026;-58
2021/07/02 11:02:05;;;;;;;14.15;3.13;;;;;;;18.31;100.00;99894.31;6287053;22;20031;-59
2021/07/02 11:05:26;;;;;;;15.27;4.43;;;;;;;18.63;100.00;99892.44;6286700;22;20023;-59
2021/07/02 11:08:46;;;;;;;15.20;4.05;;;;;;;19.23;100.00;99893.72;6286234;22;20023;-59
2021/07/02 11:12:10;;;;;;;9.75;4.28;;;;;;;19.80;100.00;99889.56;6286625;22;20019;-60
2021/07/02 11:15:19;;;;;;;14.25;3.72;;;;;;;20.01;100.00;99892.59;6286455;22;20034;-59
2021/07/02 11:18:23;;;;;;;12.07;3.40;;;;;;;19.87;100.00;99888.94;6286467;22;20026;-59
2021/07/02 11:21:27;;;;;;;13.20;4.03;;;;;;;20.11;100.00;99883.13;6285825;22;20023;-59
2021/07/02 11:25:05;;;;;;;9.02;2.65;;;;;;;20.59;100.00;99878.41;6286546;22;20078;-59
2021/07/02 11:28:12;;;;;;;14.88;3.22;;;;;;;20.83;100.00;99887.44;6286180;22;20026;-59
2021/07/02 11:31:18;;;;;;;9.63;3.65;;;;;;;20.47;100.00;99883.53;6286458;22;20030;-60
2021/07/02 11:34:22;;;;;;;8.98;2.95;;;;;;;20.25;100.00;99878.28;6285992;22;20055;-59
2021/07/02 11:37:25;;;;;;;12.32;2.72;;;;;;;20.24;100.00;99885.25;6286288;22;20019;-59
2021/07/02 11:40:31;;;;;;;7.53;2.80;;;;;;;20.16;100.00;99881.53;6286016;22;20046;-59
2021/07/02 11:43:35;;;;;;;14.40;3.42;;;;;;;20.00;100.00;99891.81;6286266;22;20038;-60
2021/07/02 11:46:39;;;;;;;7.28;2.72;;;;;;;19.68;100.00;99885.41;6285982;22;20026;-59
2021/07/02 11:49:47;;;;;;;8.93;2.97;;;;;;;19.52;100.00;99887.19;6286416;22;20042;-60
2021/07/02 11:52:50;;;;;;;11.02;2.38;;;;;;;19.80;100.00;99891.63;6286034;22;20022;-59
2021/07/02 11:56:02;;;;;;;8.73;2.53;;;;;;;19.95;100.00;99887.00;6285950;22;20031;-59
2021/07/02 11:59:06;;;;;;;9.02;3.30;;;;;;;20.21;100.00;99886.31;6286025;22;20026;-59
2021/07/02 12:02:12;;;;;;;8.05;2.95;;;;;;;20.20;100.00;99890.44;6286322;22;20031;-59
2021/07/02 12:05:16;;;;;;;8.77;2.53;;;;;;;20.44;100.00;99889.53;6286212;22;20313;-59
2021/07/02 12:08:24;;;;;;;9.45;3.80;;;;;;;20.27;100.00;99887.00;6286260;22;20026;-59
2021/07/02 12:11:38;;;;;;;13.18;2.95;;;;;;;20.33;100.00;99896.16;6285870;22;20336;-59
2021/07/02 12:14:42;;;;;;;10.55;3.83;;;;;;;20.46;100.00;99892.56;6285997;22;20026;-60
2021/07/02 12:17:45;;;;;;;11.10;2.95;;;;;;;20.31;100.00;99887.44;6267626;22;20023;-59
2021/07/02 12:21:09;;;;;;;9.60;3.28;;;;;;;20.23;100.00;99887.31;6286101;22;20019;-60
2021/07/02 12:24:12;;;;;;;9.07;2.63;;;;;;;20.29;100.00;99890.06;6286170;22;20022;-59
2021/07/02 12:27:20;;;;;;;9.10;4.00;;;;;;;20.04;100.00;99886.59;6286004;22;20018;-59
2021/07/02 12:30:27;;;;;;;8.02;2.92;;;;;;;19.55;100.00;99880.47;6261726;22;20030;-59
2021/07/02 12:33:31;;;;;;;9.95;3.83;;;;;;;19.34;100.00;99879.50;6285620;22;20019;-60
2021/07/02 12:36:35;;;;;;;13.23;3.83;;;;;;;19.39;100.00;99877.88;6287068;22;20027;-64
2021/07/02 12:39:45;;;;;;;15.90;4.38;;;;;;;20.01;100.00;99875.63;6285723;22;20022;-61
2021/07/02 12:42:49;;;;;;;;;;;;;;;20.60;100.00;99874.28;6286788;22;20325;-62
2021/07/02 12:45:53;;;;;;;12.63;2.72;;;;;;;21.05;100.00;99867.16;6286262;22;20320;-63
2021/07/02 12:49:20;;;;;;;13.48;3.53;;;;;;;21.31;100.00;99874.84;6287725;22;20337;-63
2021/07/02 12:55:37;;;;;;;11.90;2.72;;;;;;;21.81;100.00;99870.81;6256811;23;20027;-63
2021/07/02 12:58:41;;;;;;;13.70;3.03;;;;;;;21.82;100.00;99866.69;6256552;23;20483;-64
2021/07/02 13:01:46;;;;;;;13.82;3.05;;;;;;;21.69;100.00;99858.25;6255752;23;20389;-61
2021/07/02 13:04:50;;;;;;;12.30;3.33;;;;;;;21.68;100.00;99857.47;6256865;23;20035;-64
2021/07/02 13:08:00;;;;;;;11.13;3.08;;;;;;;21.76;100.00;99852.66;6256368;23;20081;-59
2021/07/02 13:11:20;;;;;;;15.55;2.28;;;;;;;21.74;100.00;99854.50;6255890;23;20640;-60
2021/07/02 13:14:28;;;;;;;4.53;2.03;;;;;;;21.86;100.00;99858.59;6255423;23;20023;-60
2021/07/02 13:17:43;;;;;;;5.55;1.92;;;;;;;21.97;100.00;99843.38;6256830;23;20030;-57
2021/07/02 13:20:49;;;;;;;7.85;2.00;;;;;;;22.07;100.00;99839.50;6256340;23;20027;-60
2021/07/02 13:23:56;;;;;;;12.95;2.33;;;;;;;22.37;100.00;99831.19;6256037;23;20341;-60
2021/07/02 13:27:00;;;;;;;6.35;1.60;;;;;;;22.78;100.00;99832.41;6255114;23;20023;-60
2021/07/02 13:30:09;;;;;;;6.45;1.92;;;;;;;22.89;100.00;99829.22;6256794;23;20020;-60
2021/07/02 13:33:13;;;;;;;12.95;2.25;;;;;;;22.83;100.00;99828.63;6255983;23;20025;-60
2021/07/02 13:36:16;;;;;;;5.82;1.75;;;;;;;22.92;100.00;99823.19;6256081;23;20019;-61
2021/07/02 13:39:33;;;;;;;10.95;1.90;;;;;;;23.16;100.00;99816.25;6256161;23;20023;-61
2021/07/02 13:42:38;;;;;;;12.07;2.20;;;;;;;22.89;100.00;99815.03;6256181;23;20027;-60
2021/07/02 13:46:04;;;;;;;6.28;1.67;;;;;;;22.86;100.00;99810.47;6255535;23;20039;-60
2021/07/02 13:49:07;;;;;;;6.15;1.77;;;;;;;22.97;100.00;99810.13;6256148;23;20026;-61
2021/07/02 13:52:12;;;;;;;5.45;1.85;;;;;;;23.06;100.00;99809.59;6272669;22;20019;-61
2021/07/02 13:55:15;;;;;;;7.65;2.22;;;;;;;23.05;100.00;99791.78;6286994;22;20479;-60
2021/07/02 13:58:19;;;;;;;5.93;1.95;;;;;;;22.76;100.00;99786.78;6286754;22;20022;-60
2021/07/02 14:01:22;;;;;;;11.55;1.98;;;;;;;23.05;100.00;99791.03;6267801;22;20026;-60
2021/07/02 14:04:27;;;;;;;5.90;2.50;;;;;;;23.33;100.00;99776.72;6286375;22;20464;-61
2021/07/02 14:07:31;;;;;;;7.25;2.80;;;;;;;23.33;100.00;99776.72;6286450;22;20022;-61
2021/07/02 14:10:36;;;;;;;5.63;1.80;;;;;;;23.39;100.00;99774.44;6286506;22;20207;-61
2021/07/02 14:13:39;;;;;;;6.82;1.13;;;;;;;23.52;100.00;99782.06;6286289;22;20337;-61
2021/07/02 14:16:44;;;;;;;4.30;1.02;;;;;;;23.17;100.00;99775.91;6286695;22;20022;-61
2021/07/02 14:19:49;;;;;;;6.50;1.23;;;;;;;22.51;100.00;99773.00;6286620;22;20034;-61
2021/07/02 14:22:53;;;;;;;5.85;1.45;;;;;;;22.13;100.00;99789.06;6286747;22;20042;-61